createdAt,value
2019-05-11T00:02:12.297Z,6.90
2019-05-11T00:04:41.570Z,5.73
2019-05-11T00:07:11.066Z,5.93
2019-05-11T00:09:55.666Z,5.90
2019-05-11T00:12:11.028Z,5.93
2019-05-11T00:14:40.136Z,6.87
2019-05-11T00:17:09.224Z,7.23
2019-05-11T00:19:38.312Z,8.80
2019-05-11T00:22:07.458Z,9.70
2019-05-11T00:24:36.561Z,9.97
2019-05-11T00:27:05.631Z,9.10
2019-05-11T00:29:34.737Z,8.43
2019-05-11T00:32:04.009Z,8.47
2019-05-11T00:34:33.096Z,7.90
2019-05-11T00:37:02.207Z,8.87
2019-05-11T00:39:31.305Z,7.77
2019-05-11T00:42:00.399Z,6.83
2019-05-11T00:44:29.505Z,6.90
2019-05-11T00:46:58.605Z,6.63
2019-05-11T00:49:28.050Z,7.37
2019-05-11T00:51:57.264Z,6.13
2019-05-11T00:54:26.358Z,7.00
2019-05-11T00:56:55.448Z,5.80
2019-05-11T00:59:24.840Z,5.90
2019-05-11T01:01:53.944Z,5.70
2019-05-11T01:04:23.051Z,6.30
2019-05-11T01:06:52.223Z,6.40
2019-05-11T01:09:21.653Z,5.80
2019-05-11T01:11:50.748Z,6.43
2019-05-11T01:14:19.862Z,6.20
2019-05-11T01:16:48.979Z,5.90
2019-05-11T01:19:18.076Z,6.57
2019-05-11T01:21:47.260Z,6.80
2019-05-11T01:24:17.422Z,6.87
2019-05-11T01:26:46.524Z,7.03
2019-05-11T01:29:15.636Z,6.83
2019-05-11T01:31:44.733Z,6.77
2019-05-11T01:34:13.846Z,7.00
2019-05-11T01:36:42.932Z,6.70
2019-05-11T01:39:12.326Z,5.90
2019-05-11T01:41:41.414Z,6.50
2019-05-11T01:44:10.510Z,6.00
2019-05-11T01:46:39.608Z,5.93
2019-05-11T01:49:08.777Z,6.20
2019-05-11T01:51:37.916Z,6.70
2019-05-11T01:54:07.033Z,6.30
2019-05-11T01:56:36.125Z,5.47
2019-05-11T01:59:05.225Z,6.00
2019-05-11T02:01:34.344Z,6.10
2019-05-11T02:04:03.517Z,6.67
2019-05-11T02:06:32.609Z,5.80
2019-05-11T02:09:01.729Z,5.83
2019-05-11T02:11:31.997Z,5.90
2019-05-11T02:14:01.101Z,5.53
2019-05-11T02:16:30.220Z,5.20
2019-05-11T02:18:59.346Z,5.93
2019-05-11T02:21:28.464Z,5.30
2019-05-11T02:23:57.617Z,5.83
2019-05-11T02:26:26.702Z,5.10
2019-05-11T02:28:55.803Z,6.43
2019-05-11T02:31:24.878Z,5.20
2019-05-11T02:33:55.281Z,5.30
2019-05-11T02:36:24.382Z,6.00
2019-05-11T02:38:53.548Z,5.50
2019-05-11T02:41:35.360Z,5.87
2019-05-11T02:43:53.778Z,5.70
2019-05-11T02:46:22.883Z,5.80
2019-05-11T02:48:52.301Z,5.50
2019-05-11T02:51:21.562Z,5.63
2019-05-11T02:53:51.636Z,5.60
2019-05-11T02:56:20.717Z,5.93
2019-05-11T02:58:50.073Z,5.90
2019-05-11T03:01:20.072Z,6.17
2019-05-11T03:03:49.187Z,6.13
2019-05-11T03:06:18.298Z,5.80
2019-05-11T03:08:47.411Z,6.30
2019-05-11T03:11:16.573Z,6.47
2019-05-11T03:13:46.748Z,6.37
2019-05-11T03:16:15.893Z,6.50
2019-05-11T03:18:45.055Z,6.50
2019-05-11T03:21:14.159Z,5.67
2019-05-11T03:23:43.244Z,5.57
2019-05-11T03:26:12.358Z,5.83
2019-05-11T03:28:41.448Z,5.93
2019-05-11T03:31:10.550Z,5.90
2019-05-11T03:33:39.676Z,6.80
2019-05-11T03:36:08.864Z,6.47
2019-05-11T03:38:38.002Z,5.67
2019-05-11T03:41:07.100Z,4.80
2019-05-11T03:43:36.193Z,6.30
2019-05-11T03:46:05.297Z,6.17
2019-05-11T03:48:34.389Z,6.00
2019-05-11T03:51:03.474Z,5.30
2019-05-11T03:53:32.625Z,5.53
2019-05-11T03:56:01.781Z,5.80
2019-05-11T03:58:30.904Z,5.57
2019-05-11T04:01:00.275Z,5.37
2019-05-11T04:03:30.470Z,5.40
2019-05-11T04:05:59.746Z,5.67
2019-05-11T04:08:28.837Z,5.73
2019-05-11T04:10:57.953Z,5.60
2019-05-11T04:13:27.065Z,5.43
2019-05-11T04:15:56.207Z,5.83
2019-05-11T04:18:25.302Z,5.33
2019-05-11T04:20:54.408Z,5.27
2019-05-11T04:23:23.689Z,5.97
2019-05-11T04:25:52.816Z,5.37
2019-05-11T04:28:21.925Z,5.57
2019-05-11T04:30:51.037Z,5.07
2019-05-11T04:33:20.134Z,5.40
2019-05-11T04:35:49.573Z,5.87
2019-05-11T04:38:18.835Z,5.73
2019-05-11T04:40:47.925Z,6.50
2019-05-11T04:43:17.512Z,5.50
2019-05-11T04:45:46.604Z,5.33
2019-05-11T04:48:15.713Z,5.50
2019-05-11T04:50:44.961Z,6.20
2019-05-11T04:53:14.057Z,5.73
2019-05-11T04:55:43.156Z,5.83
2019-05-11T04:58:12.272Z,5.73
2019-05-11T05:00:42.752Z,6.10
2019-05-11T05:03:11.876Z,5.93
2019-05-11T05:05:40.976Z,6.00
2019-05-11T05:08:10.215Z,5.30
2019-05-11T05:10:39.347Z,6.87
2019-05-11T05:13:10.656Z,5.80
2019-05-11T05:15:39.266Z,6.10
2019-05-11T05:18:08.348Z,6.37
2019-05-11T05:20:38.423Z,5.50
2019-05-11T05:23:07.554Z,5.60
2019-05-11T05:25:36.636Z,5.87
2019-05-11T05:28:05.744Z,5.20
2019-05-11T05:30:34.829Z,4.70
2019-05-11T05:33:03.919Z,5.33
2019-05-11T05:35:33.188Z,5.80
2019-05-11T05:38:02.294Z,6.33
2019-05-11T05:40:31.384Z,5.17
2019-05-11T05:43:00.495Z,5.20
2019-05-11T05:45:29.616Z,4.97
2019-05-11T05:48:01.529Z,5.37
2019-05-11T05:50:30.639Z,5.23
2019-05-11T05:53:00.372Z,4.80
2019-05-11T05:55:29.532Z,4.80
2019-05-11T05:57:59.390Z,12.93
2019-05-11T06:00:28.511Z,4.57
2019-05-11T06:02:57.636Z,4.50
2019-05-11T06:05:26.810Z,3.87
2019-05-11T06:07:55.899Z,3.60
2019-05-11T06:10:25.085Z,3.73
2019-05-11T06:12:54.175Z,4.27
2019-05-11T06:15:23.349Z,4.03
2019-05-11T06:17:52.449Z,4.00
2019-05-11T06:20:21.540Z,3.63
2019-05-11T06:22:50.908Z,3.83
2019-05-11T06:25:20.038Z,3.10
2019-05-11T06:27:49.132Z,3.07
2019-05-11T06:30:18.519Z,3.23
2019-05-11T06:32:47.624Z,2.90
2019-05-11T06:35:16.801Z,3.20
2019-05-11T06:37:45.892Z,3.40
2019-05-11T06:40:15.269Z,3.27
2019-05-11T06:42:44.376Z,2.97
2019-05-11T06:45:13.478Z,3.43
2019-05-11T06:47:42.599Z,3.00
2019-05-11T06:50:11.751Z,2.63
2019-05-11T06:52:40.861Z,3.30
2019-05-11T06:55:10.764Z,2.90
2019-05-11T06:57:39.907Z,3.00
2019-05-11T07:00:09.514Z,2.80
2019-05-11T07:02:38.638Z,2.80
2019-05-11T07:05:08.886Z,2.70
2019-05-11T07:07:47.077Z,2.87
2019-05-11T07:10:09.609Z,2.10
2019-05-11T07:12:38.731Z,2.77
2019-05-11T07:15:08.132Z,2.50
2019-05-11T07:17:37.259Z,2.27
2019-05-11T07:20:06.974Z,1.63
2019-05-11T07:22:36.079Z,2.53
2019-05-11T07:25:05.497Z,1.60
2019-05-11T07:27:34.581Z,2.47
2019-05-11T07:30:04.103Z,2.20
2019-05-11T07:32:33.440Z,2.77
2019-05-11T07:35:02.524Z,2.50
2019-05-11T07:37:31.612Z,2.67
2019-05-11T07:40:00.734Z,2.07
2019-05-11T07:42:29.844Z,2.00
2019-05-11T07:44:58.958Z,2.03
2019-05-11T07:47:28.073Z,2.30
2019-05-11T07:49:57.905Z,2.17
2019-05-11T07:52:28.779Z,2.40
2019-05-11T07:54:58.130Z,2.50
2019-05-11T07:57:28.412Z,1.90
2019-05-11T07:59:57.927Z,2.23
2019-05-11T08:02:31.921Z,2.10
2019-05-11T08:04:59.143Z,1.83
2019-05-11T08:07:28.604Z,2.53
2019-05-11T08:09:58.911Z,2.10
2019-05-11T08:12:28.632Z,2.03
2019-05-11T08:15:08.028Z,1.67
2019-05-11T08:17:28.742Z,2.10
2019-05-11T08:19:58.108Z,2.33
2019-05-11T08:22:28.420Z,2.33
2019-05-11T08:24:58.565Z,2.30
2019-05-11T08:27:28.976Z,2.20
2019-05-11T08:29:58.131Z,2.27
2019-05-11T08:32:28.615Z,2.10
2019-05-11T08:34:58.139Z,2.00
2019-05-11T08:37:28.385Z,2.40
2019-05-11T08:39:58.498Z,3.13
2019-05-11T08:42:28.905Z,2.10
2019-05-11T08:45:15.404Z,3.00
2019-05-11T08:47:29.104Z,2.40
2019-05-11T08:49:58.909Z,1.97
2019-05-11T08:52:29.080Z,2.23
2019-05-11T08:54:58.204Z,1.70
2019-05-11T08:57:28.663Z,2.57
2019-05-11T08:59:58.067Z,2.20
2019-05-11T09:02:27.814Z,1.97
2019-05-11T09:04:58.924Z,1.80
2019-05-11T09:07:27.967Z,2.47
2019-05-11T09:09:58.547Z,2.40
2019-05-11T09:12:28.784Z,2.67
2019-05-11T09:14:58.247Z,2.37
2019-05-11T09:17:29.007Z,1.90
2019-05-11T09:19:58.255Z,2.00
2019-05-11T09:22:28.356Z,2.20
2019-05-11T09:24:58.410Z,2.10
2019-05-11T09:27:28.625Z,2.07
2019-05-11T09:29:58.834Z,2.20
2019-05-11T09:32:28.617Z,1.90
2019-05-11T09:34:58.116Z,1.87
2019-05-11T09:37:27.830Z,2.53
2019-05-11T09:39:58.471Z,2.40
2019-05-11T09:42:28.772Z,2.00
2019-05-11T09:44:57.902Z,2.00
2019-05-11T09:47:27.937Z,2.43
2019-05-11T09:49:58.205Z,2.50
2019-05-11T09:52:32.609Z,2.40
2019-05-11T09:55:01.861Z,2.70
2019-05-11T09:57:30.974Z,2.43
2019-05-11T10:00:00.143Z,2.40
2019-05-11T10:02:29.248Z,2.60
2019-05-11T10:04:58.365Z,2.37
2019-05-11T10:07:28.629Z,2.10
2019-05-11T10:09:58.549Z,2.83
2019-05-11T10:12:28.564Z,2.40
2019-05-11T10:14:59.127Z,2.27
2019-05-11T10:17:28.865Z,2.07
2019-05-11T10:19:58.382Z,2.17
2019-05-11T10:22:27.929Z,2.10
2019-05-11T10:24:58.274Z,8.30
2019-05-11T10:27:28.093Z,2.20
2019-05-11T10:29:58.941Z,2.10
2019-05-11T10:32:28.824Z,2.10
2019-05-11T10:34:58.475Z,2.17
2019-05-11T10:37:28.297Z,2.00
2019-05-11T10:39:57.891Z,1.90
2019-05-11T10:42:28.380Z,2.23
2019-05-11T10:44:58.265Z,1.87
2019-05-11T10:47:27.864Z,2.50
2019-05-11T10:49:58.208Z,2.50
2019-05-11T10:52:28.561Z,2.63
2019-05-11T10:54:58.652Z,1.80
2019-05-11T10:57:28.452Z,1.90
2019-05-11T10:59:58.058Z,2.73
2019-05-11T11:02:28.000Z,2.30
2019-05-11T11:04:58.832Z,2.30
2019-05-11T11:07:28.895Z,1.90
2019-05-11T11:09:58.326Z,2.30
2019-05-11T11:12:28.005Z,2.13
2019-05-11T11:14:58.699Z,1.80
2019-05-11T11:17:28.751Z,2.00
2019-05-11T11:19:58.188Z,2.20
2019-05-11T11:22:39.155Z,2.30
2019-05-11T11:24:58.900Z,2.50
2019-05-11T11:27:29.313Z,2.17
2019-05-11T11:29:58.910Z,2.47
2019-05-11T11:32:28.530Z,2.80
2019-05-11T11:34:58.144Z,2.27
2019-05-11T11:37:28.123Z,2.03
2019-05-11T11:39:58.207Z,2.20
2019-05-11T11:42:28.451Z,2.30
2019-05-11T11:44:58.751Z,3.07
2019-05-11T11:47:28.564Z,2.20
2019-05-11T11:49:58.471Z,2.53
2019-05-11T11:52:29.229Z,2.20
2019-05-11T11:54:58.901Z,2.57
2019-05-11T11:57:28.596Z,2.80
2019-05-11T11:59:59.471Z,2.20
2019-05-11T12:02:29.093Z,2.30
2019-05-11T12:04:58.742Z,2.33
2019-05-11T12:07:28.646Z,2.83
2019-05-11T12:09:58.909Z,2.90
2019-05-11T12:12:28.593Z,2.83
2019-05-11T12:14:58.552Z,2.60
2019-05-11T12:17:28.680Z,2.20
2019-05-11T12:19:58.724Z,2.90
2019-05-11T12:22:28.571Z,2.70
2019-05-11T12:24:58.902Z,3.00
2019-05-11T12:27:28.836Z,2.60
2019-05-11T12:29:58.632Z,2.60
2019-05-11T12:32:42.706Z,2.50
2019-05-11T12:35:12.669Z,2.90
2019-05-11T12:37:42.371Z,2.87
2019-05-11T12:40:14.912Z,2.47
2019-05-11T12:42:44.536Z,2.90
2019-05-11T12:45:14.504Z,2.30
2019-05-11T12:47:44.124Z,2.67
2019-05-11T12:50:14.112Z,2.53
2019-05-11T12:52:43.792Z,2.23
2019-05-11T12:55:13.745Z,2.30
2019-05-11T12:57:44.441Z,5.80
2019-05-11T13:00:14.996Z,2.47
2019-05-11T13:02:48.197Z,2.10
2019-05-11T13:05:18.128Z,2.27
2019-05-11T13:07:48.460Z,2.03
2019-05-11T13:10:18.957Z,2.17
2019-05-11T13:12:49.371Z,2.20
2019-05-11T13:15:20.936Z,2.20
2019-05-11T13:17:50.554Z,2.47
2019-05-11T13:20:20.175Z,1.97
2019-05-11T13:22:49.885Z,2.20
2019-05-11T13:25:19.508Z,2.70
2019-05-11T13:27:49.402Z,2.30
2019-05-11T13:30:19.393Z,2.20
2019-05-11T13:32:49.296Z,2.20
2019-05-11T13:35:19.120Z,2.50
2019-05-11T13:37:48.860Z,2.50
2019-05-11T13:40:18.789Z,2.90
2019-05-11T13:42:49.098Z,2.83
2019-05-11T13:45:19.277Z,1.93
2019-05-11T13:47:55.355Z,2.57
2019-05-11T13:50:20.292Z,2.60
2019-05-11T13:52:49.898Z,3.33
2019-05-11T13:55:19.527Z,2.17
2019-05-11T13:57:49.129Z,2.20
2019-05-11T14:00:19.446Z,2.33
2019-05-11T14:02:49.102Z,2.40
2019-05-11T14:05:18.767Z,2.00
2019-05-11T14:07:48.549Z,1.70
2019-05-11T14:10:18.489Z,2.30
2019-05-11T14:12:48.304Z,2.60
2019-05-11T14:15:18.840Z,2.10
2019-05-11T14:18:04.421Z,2.23
2019-05-11T14:20:21.445Z,2.00
2019-05-11T14:22:51.074Z,2.20
2019-05-11T14:25:20.758Z,1.93
2019-05-11T14:27:49.948Z,2.33
2019-05-11T14:30:19.334Z,2.30
2019-05-11T14:32:48.648Z,2.80
2019-05-11T14:35:18.872Z,2.07
2019-05-11T14:37:49.176Z,1.80
2019-05-11T14:40:18.366Z,2.23
2019-05-11T14:42:48.938Z,2.23
2019-05-11T14:45:19.352Z,1.90
2019-05-11T14:47:48.459Z,1.93
2019-05-11T14:50:18.825Z,1.70
2019-05-11T14:52:49.051Z,2.10
2019-05-11T14:55:18.744Z,1.83
2019-05-11T14:57:48.778Z,2.10
2019-05-11T15:00:18.755Z,1.97
2019-05-11T15:02:49.981Z,2.00
2019-05-11T15:05:19.440Z,2.53
2019-05-11T15:07:52.009Z,2.17
2019-05-11T15:10:20.629Z,1.97
2019-05-11T15:12:49.753Z,2.03
2019-05-11T15:15:19.051Z,2.10
2019-05-11T15:17:49.322Z,1.83
2019-05-11T15:20:18.877Z,2.03
2019-05-11T15:22:48.952Z,1.80
2019-05-11T15:25:19.885Z,1.90
2019-05-11T15:27:49.359Z,2.43
2019-05-11T15:30:18.980Z,1.90
2019-05-11T15:32:48.449Z,2.30
2019-05-11T15:35:18.697Z,1.97
2019-05-11T15:37:48.373Z,1.90
2019-05-11T15:40:18.953Z,2.20
2019-05-11T15:42:48.781Z,2.30
2019-05-11T15:45:18.974Z,1.50
2019-05-11T15:47:48.930Z,1.90
2019-05-11T15:50:19.194Z,2.13
2019-05-11T15:52:49.018Z,2.33
2019-05-11T15:55:18.928Z,1.67
2019-05-11T15:57:48.559Z,1.87
2019-05-11T16:00:18.100Z,1.77
2019-05-11T16:02:49.065Z,1.67
2019-05-11T16:05:18.630Z,2.17
2019-05-11T16:07:49.352Z,2.20
2019-05-11T16:10:19.614Z,1.60
2019-05-11T16:12:48.973Z,1.77
2019-05-11T16:15:19.449Z,2.10
2019-05-11T16:17:49.263Z,2.00
2019-05-11T16:20:18.613Z,1.77
2019-05-11T16:22:48.195Z,2.07
2019-05-11T16:25:19.633Z,1.77
2019-05-11T16:27:48.501Z,2.20
2019-05-11T16:30:21.129Z,1.93
2019-05-11T16:32:48.787Z,2.17
2019-05-11T16:35:18.220Z,2.03
2019-05-11T16:37:48.652Z,2.20
2019-05-11T16:40:20.603Z,1.90
2019-05-11T16:42:50.092Z,1.53
2019-05-11T16:45:19.504Z,2.30
2019-05-11T16:47:48.810Z,1.63
2019-05-11T16:50:18.382Z,2.00
2019-05-11T16:52:48.280Z,1.63
2019-05-11T16:55:18.370Z,1.50
2019-05-11T16:57:48.724Z,1.80
2019-05-11T17:00:18.137Z,2.13
2019-05-11T17:02:49.013Z,2.20
2019-05-11T17:05:26.628Z,1.97
2019-05-11T17:07:49.813Z,1.90
2019-05-11T17:10:19.030Z,2.23
2019-05-11T17:12:48.716Z,1.70
2019-05-11T17:15:19.101Z,2.10
2019-05-11T17:17:48.917Z,2.13
2019-05-11T17:20:18.954Z,2.10
2019-05-11T17:22:48.496Z,2.10
2019-05-11T17:25:19.393Z,2.30
2019-05-11T17:27:49.219Z,2.40
2019-05-11T17:30:19.921Z,2.10
2019-05-11T17:32:49.805Z,2.07
2019-05-11T17:35:19.354Z,1.80
2019-05-11T17:37:48.849Z,1.90
2019-05-11T17:40:22.397Z,2.40
2019-05-11T17:42:49.024Z,1.77
2019-05-11T17:45:18.823Z,1.80
2019-05-11T17:47:48.411Z,1.73
2019-05-11T17:50:19.178Z,2.13
2019-05-11T17:52:48.589Z,1.83
2019-05-11T17:55:18.383Z,1.87
2019-05-11T17:57:49.575Z,1.80
2019-05-11T18:00:20.126Z,2.03
2019-05-11T18:02:49.701Z,1.70
2019-05-11T18:05:19.830Z,2.80
2019-05-11T18:07:48.964Z,2.40
2019-05-11T18:10:18.462Z,2.40
2019-05-11T18:12:48.625Z,1.90
2019-05-11T18:15:18.895Z,2.33
2019-05-11T18:17:48.758Z,2.70
2019-05-11T18:20:21.538Z,2.67
2019-05-11T18:22:49.410Z,2.03
2019-05-11T18:25:18.761Z,2.53
2019-05-11T18:27:48.379Z,1.90
2019-05-11T18:30:18.012Z,2.00
2019-05-11T18:32:49.146Z,2.10
2019-05-11T18:35:19.488Z,2.10
2019-05-11T18:37:48.962Z,2.30
2019-05-11T18:40:18.777Z,2.20
2019-05-11T18:42:48.715Z,2.10
2019-05-11T18:45:19.460Z,2.43
2019-05-11T18:47:49.164Z,1.97
2019-05-11T18:50:30.020Z,2.70
2019-05-11T18:52:49.869Z,2.60
2019-05-11T18:55:19.272Z,3.00
2019-05-11T18:57:49.298Z,2.50
2019-05-11T19:00:19.834Z,2.57
2019-05-11T19:02:49.739Z,2.77
2019-05-11T19:05:19.306Z,2.17
2019-05-11T19:07:48.536Z,3.00
2019-05-11T19:10:17.775Z,2.70
2019-05-11T19:12:48.738Z,2.30
2019-05-11T19:15:19.044Z,2.33
2019-05-11T19:17:49.261Z,2.17
2019-05-11T19:20:19.143Z,2.63
2019-05-11T19:22:48.683Z,2.30
2019-05-11T19:25:18.344Z,2.60
2019-05-11T19:27:50.349Z,2.80
2019-05-11T19:30:18.764Z,2.80
2019-05-11T19:32:49.020Z,1.83
2019-05-11T19:35:21.183Z,2.60
2019-05-11T19:37:49.019Z,2.10
2019-05-11T19:40:18.176Z,2.23
2019-05-11T19:42:53.721Z,2.87
2019-05-11T19:45:23.191Z,2.50
2019-05-11T19:47:52.585Z,2.40
2019-05-11T19:50:21.704Z,2.30
2019-05-11T19:52:50.824Z,2.37
2019-05-11T19:55:19.940Z,2.60
2019-05-11T19:57:49.040Z,2.20
2019-05-11T20:00:18.703Z,5.27
2019-05-11T20:02:47.848Z,2.40
2019-05-11T20:05:18.390Z,2.73
2019-05-11T20:07:49.117Z,2.63
2019-05-11T20:10:19.088Z,2.47
2019-05-11T20:12:48.742Z,2.10
2019-05-11T20:15:19.310Z,2.13
2019-05-11T20:17:48.952Z,2.60
2019-05-11T20:20:18.884Z,2.13
2019-05-11T20:22:48.740Z,2.30
2019-05-11T20:25:19.137Z,2.50
2019-05-11T20:27:49.042Z,2.83
2019-05-11T20:30:19.106Z,2.40
2019-05-11T20:32:49.185Z,2.30
2019-05-11T20:35:18.815Z,2.70
2019-05-11T20:37:49.317Z,2.43
2019-05-11T20:40:18.656Z,2.30
2019-05-11T20:42:48.606Z,2.30
2019-05-11T20:45:18.551Z,2.10
2019-05-11T20:47:48.852Z,2.00
2019-05-11T20:50:18.743Z,2.37
2019-05-11T20:52:48.529Z,2.17
2019-05-11T20:55:18.407Z,2.17
2019-05-11T20:57:48.395Z,2.67
2019-05-11T21:00:18.661Z,2.50
2019-05-11T21:02:48.841Z,2.53
2019-05-11T21:05:18.613Z,2.33
2019-05-11T21:07:47.947Z,2.50
2019-05-11T21:10:17.113Z,2.80
2019-05-11T21:12:46.220Z,2.47
2019-05-11T21:15:15.572Z,2.57
2019-05-11T21:17:44.672Z,1.93
2019-05-11T21:20:15.381Z,2.83
2019-05-11T21:22:44.481Z,2.10
2019-05-11T21:25:13.806Z,2.50
2019-05-11T21:27:43.017Z,2.93
2019-05-11T21:30:12.380Z,2.90
2019-05-11T21:32:42.101Z,2.50
2019-05-11T21:35:11.273Z,2.50
2019-05-11T21:37:40.393Z,2.30
2019-05-11T21:40:09.708Z,2.57
2019-05-11T21:42:39.272Z,2.17
2019-05-11T21:45:09.442Z,2.90
2019-05-11T21:47:39.626Z,2.83
2019-05-11T21:50:09.356Z,3.50
2019-05-11T21:52:38.847Z,3.00
2019-05-11T21:55:09.895Z,4.80
2019-05-11T21:57:39.200Z,3.20
2019-05-11T22:00:09.227Z,2.80
2019-05-11T22:02:39.518Z,2.90
2019-05-11T22:05:10.034Z,2.73
2019-05-11T22:07:41.946Z,2.33
2019-05-11T22:10:10.092Z,2.90
2019-05-11T22:12:39.505Z,2.10
2019-05-11T22:15:09.835Z,2.50
2019-05-11T22:17:39.659Z,2.50
2019-05-11T22:20:10.222Z,2.23
2019-05-11T22:22:39.505Z,2.80
2019-05-11T22:25:08.882Z,2.27
2019-05-11T22:27:38.761Z,2.17
2019-05-11T22:30:08.825Z,2.37
2019-05-11T22:32:38.572Z,3.17
2019-05-11T22:35:07.880Z,2.50
2019-05-11T22:37:38.720Z,2.30
2019-05-11T22:40:08.587Z,2.23
2019-05-11T22:42:38.003Z,2.73
2019-05-11T22:45:08.481Z,2.67
2019-05-11T22:47:39.244Z,2.63
2019-05-11T22:50:09.022Z,2.43
2019-05-11T22:52:40.262Z,2.57
2019-05-11T22:55:11.861Z,2.37
2019-05-11T22:57:40.404Z,2.67
2019-05-11T23:00:09.593Z,2.50
2019-05-11T23:02:40.324Z,2.50
2019-05-11T23:05:10.564Z,2.20
2019-05-11T23:07:41.320Z,2.27
2019-05-11T23:10:10.568Z,3.00
2019-05-11T23:12:39.684Z,2.20
2019-05-11T23:15:15.681Z,2.47
2019-05-11T23:17:44.800Z,2.50
2019-05-11T23:20:15.432Z,2.27
2019-05-11T23:22:56.913Z,2.70
2019-05-11T23:25:18.721Z,2.83
2019-05-11T23:27:48.741Z,2.10
2019-05-11T23:30:20.269Z,3.13
2019-05-11T23:32:50.719Z,3.10
2019-05-11T23:35:19.832Z,2.10
2019-05-11T23:37:49.886Z,2.20
2019-05-11T23:40:19.970Z,2.17
2019-05-11T23:42:49.398Z,2.30
2019-05-11T23:45:19.346Z,2.07
2019-05-11T23:47:49.181Z,2.00
2019-05-11T23:50:19.182Z,2.90
2019-05-11T23:52:58.015Z,2.20
2019-05-11T23:55:19.709Z,2.10
2019-05-11T23:57:49.168Z,1.97
